sensor_id;sensor_type;location;lat;lon;timestamp;temperature;humidity
21662;DHT22;10992;48.170;8.596;2022-12-29T00:01:41;4.80;99.90
21662;DHT22;10992;48.170;8.596;2022-12-29T00:04:12;4.70;99.90
21662;DHT22;10992;48.170;8.596;2022-12-29T00:06:42;4.70;99.90
21662;DHT22;10992;48.170;8.596;2022-12-29T00:09:11;4.70;99.90
21662;DHT22;10992;48.170;8.596;2022-12-29T00:11:39;4.70;99.90
21662;DHT22;10992;48.170;8.596;2022-12-29T00:14:08;4.60;99.90
21662;DHT22;10992;48.170;8.596;2022-12-29T00:16:53;4.60;99.90
21662;DHT22;10992;48.170;8.596;2022-12-29T00:19:21;4.60;99.90
21662;DHT22;10992;48.170;8.596;2022-12-29T00:22:09;4.70;99.90
21662;DHT22;10992;48.170;8.596;2022-12-29T00:24:55;4.70;99.90
21662;DHT22;10992;48.170;8.596;2022-12-29T00:27:41;4.70;99.90
21662;DHT22;10992;48.170;8.596;2022-12-29T00:30:33;4.80;99.90
21662;DHT22;10992;48.170;8.596;2022-12-29T00:33:22;4.80;99.90
21662;DHT22;10992;48.170;8.596;2022-12-29T00:36:11;4.90;99.90
21662;DHT22;10992;48.170;8.596;2022-12-29T00:38:45;4.90;99.90
21662;DHT22;10992;48.170;8.596;2022-12-29T00:41:32;5.00;99.90
21662;DHT22;10992;48.170;8.596;2022-12-29T00:44:17;5.00;99.90
21662;DHT22;10992;48.170;8.596;2022-12-29T00:46:44;5.00;99.90
21662;DHT22;10992;48.170;8.596;2022-12-29T00:49:13;5.10;99.90
21662;DHT22;10992;48.170;8.596;2022-12-29T00:52:08;5.20;99.90
21662;DHT22;10992;48.170;8.596;2022-12-29T00:54:39;5.20;99.90
21662;DHT22;10992;48.170;8.596;2022-12-29T00:57:08;5.20;99.90
21662;DHT22;10992;48.170;8.596;2022-12-29T00:59:39;5.20;99.90
21662;DHT22;10992;48.170;8.596;2022-12-29T01:02:07;5.20;99.90
21662;DHT22;10992;48.170;8.596;2022-12-29T01:04:34;5.30;99.90
21662;DHT22;10992;48.170;8.596;2022-12-29T01:07:01;5.30;99.90
21662;DHT22;10992;48.170;8.596;2022-12-29T01:09:28;5.40;99.90
21662;DHT22;10992;48.170;8.596;2022-12-29T01:12:13;5.50;99.90
21662;DHT22;10992;48.170;8.596;2022-12-29T01:14:40;5.60;99.90
21662;DHT22;10992;48.170;8.596;2022-12-29T01:17:07;5.60;99.90
21662;DHT22;10992;48.170;8.596;2022-12-29T01:19:34;5.70;99.90
21662;DHT22;10992;48.170;8.596;2022-12-29T01:22:01;5.70;99.90
21662;DHT22;10992;48.170;8.596;2022-12-29T01:24:28;5.80;99.90
21662;DHT22;10992;48.170;8.596;2022-12-29T01:26:55;5.90;99.90
21662;DHT22;10992;48.170;8.596;2022-12-29T01:29:22;5.90;99.90
21662;DHT22;10992;48.170;8.596;2022-12-29T01:31:49;6.00;99.90
21662;DHT22;10992;48.170;8.596;2022-12-29T01:34:17;6.10;99.90
21662;DHT22;10992;48.170;8.596;2022-12-29T01:36:44;6.10;99.90
21662;DHT22;10992;48.170;8.596;2022-12-29T01:39:12;6.20;99.90
21662;DHT22;10992;48.170;8.596;2022-12-29T01:41:40;6.20;99.90
21662;DHT22;10992;48.170;8.596;2022-12-29T01:44:39;6.30;99.90
21662;DHT22;10992;48.170;8.596;2022-12-29T01:47:19;6.30;99.90
21662;DHT22;10992;48.170;8.596;2022-12-29T01:49:47;6.30;99.90
21662;DHT22;10992;48.170;8.596;2022-12-29T01:52:14;6.30;99.90
21662;DHT22;10992;48.170;8.596;2022-12-29T01:54:45;6.30;99.90
21662;DHT22;10992;48.170;8.596;2022-12-29T01:57:19;6.30;99.90
21662;DHT22;10992;48.170;8.596;2022-12-29T01:59:53;6.30;99.90
21662;DHT22;10992;48.170;8.596;2022-12-29T02:02:21;6.20;99.90
21662;DHT22;10992;48.170;8.596;2022-12-29T02:04:48;6.10;99.90
21662;DHT22;10992;48.170;8.596;2022-12-29T02:07:19;6.20;99.90
21662;DHT22;10992;48.170;8.596;2022-12-29T02:09:48;6.30;99.90
21662;DHT22;10992;48.170;8.596;2022-12-29T02:12:17;6.30;99.90
21662;DHT22;10992;48.170;8.596;2022-12-29T02:14:45;6.20;99.90
21662;DHT22;10992;48.170;8.596;2022-12-29T02:28:43;6.40;99.90
21662;DHT22;10992;48.170;8.596;2022-12-29T02:34:18;6.30;99.90
21662;DHT22;10992;48.170;8.596;2022-12-29T02:37:22;6.30;99.90
21662;DHT22;10992;48.170;8.596;2022-12-29T02:40:06;6.30;99.90
21662;DHT22;10992;48.170;8.596;2022-12-29T02:43:01;6.30;99.90
21662;DHT22;10992;48.170;8.596;2022-12-29T02:48:13;6.50;99.90
21662;DHT22;10992;48.170;8.596;2022-12-29T02:51:15;6.70;99.90
21662;DHT22;10992;48.170;8.596;2022-12-29T02:53:44;6.60;99.90
21662;DHT22;10992;48.170;8.596;2022-12-29T02:56:30;6.60;99.90
21662;DHT22;10992;48.170;8.596;2022-12-29T02:58:57;6.50;99.90
21662;DHT22;10992;48.170;8.596;2022-12-29T03:04:33;6.30;99.90
21662;DHT22;10992;48.170;8.596;2022-12-29T03:07:27;6.20;99.90
21662;DHT22;10992;48.170;8.596;2022-12-29T03:10:10;6.10;99.90
21662;DHT22;10992;48.170;8.596;2022-12-29T03:18:56;6.00;99.90
21662;DHT22;10992;48.170;8.596;2022-12-29T03:21:33;6.00;99.90
21662;DHT22;10992;48.170;8.596;2022-12-29T03:24:25;6.10;99.90
21662;DHT22;10992;48.170;8.596;2022-12-29T03:26:58;6.20;99.90
21662;DHT22;10992;48.170;8.596;2022-12-29T03:29:31;6.20;99.90
21662;DHT22;10992;48.170;8.596;2022-12-29T03:32:01;6.20;99.90
21662;DHT22;10992;48.170;8.596;2022-12-29T03:34:30;6.30;99.90
21662;DHT22;10992;48.170;8.596;2022-12-29T03:37:10;6.30;99.90
21662;DHT22;10992;48.170;8.596;2022-12-29T03:39:37;6.30;99.90
21662;DHT22;10992;48.170;8.596;2022-12-29T03:42:08;6.60;99.90
21662;DHT22;10992;48.170;8.596;2022-12-29T03:44:39;6.70;99.90
21662;DHT22;10992;48.170;8.596;2022-12-29T03:47:10;6.70;99.90
21662;DHT22;10992;48.170;8.596;2022-12-29T03:49:37;6.70;99.90
21662;DHT22;10992;48.170;8.596;2022-12-29T03:52:05;6.70;99.90
21662;DHT22;10992;48.170;8.596;2022-12-29T03:54:38;6.60;99.90
21662;DHT22;10992;48.170;8.596;2022-12-29T03:57:06;6.50;99.90
21662;DHT22;10992;48.170;8.596;2022-12-29T03:59:44;6.40;99.90
21662;DHT22;10992;48.170;8.596;2022-12-29T04:02:11;6.20;99.90
21662;DHT22;10992;48.170;8.596;2022-12-29T04:04:38;6.20;99.90
21662;DHT22;10992;48.170;8.596;2022-12-29T04:07:06;6.10;99.90
21662;DHT22;10992;48.170;8.596;2022-12-29T04:09:33;6.10;99.90
21662;DHT22;10992;48.170;8.596;2022-12-29T04:12:01;6.00;99.90
21662;DHT22;10992;48.170;8.596;2022-12-29T04:14:33;6.10;99.90
21662;DHT22;10992;48.170;8.596;2022-12-29T04:17:01;6.00;99.90
21662;DHT22;10992;48.170;8.596;2022-12-29T04:19:28;6.00;99.90
21662;DHT22;10992;48.170;8.596;2022-12-29T04:21:55;6.10;99.90
21662;DHT22;10992;48.170;8.596;2022-12-29T04:24:22;6.20;99.90
21662;DHT22;10992;48.170;8.596;2022-12-29T04:26:49;6.20;99.90
21662;DHT22;10992;48.170;8.596;2022-12-29T04:29:46;6.20;99.90
21662;DHT22;10992;48.170;8.596;2022-12-29T04:32:31;6.30;99.90
21662;DHT22;10992;48.170;8.596;2022-12-29T04:34:58;6.40;99.90
21662;DHT22;10992;48.170;8.596;2022-12-29T04:37:26;6.50;99.90
21662;DHT22;10992;48.170;8.596;2022-12-29T04:39:53;6.50;99.90
21662;DHT22;10992;48.170;8.596;2022-12-29T04:42:20;6.60;99.90
21662;DHT22;10992;48.170;8.596;2022-12-29T04:44:48;6.50;99.90
21662;DHT22;10992;48.170;8.596;2022-12-29T04:47:33;6.70;99.90
21662;DHT22;10992;48.170;8.596;2022-12-29T04:50:26;6.70;99.90
21662;DHT22;10992;48.170;8.596;2022-12-29T04:53:03;6.80;99.90
21662;DHT22;10992;48.170;8.596;2022-12-29T04:55:32;6.80;99.90
21662;DHT22;10992;48.170;8.596;2022-12-29T04:57:59;6.80;99.90
21662;DHT22;10992;48.170;8.596;2022-12-29T05:00:29;6.80;99.90
21662;DHT22;10992;48.170;8.596;2022-12-29T05:02:56;6.80;99.90
21662;DHT22;10992;48.170;8.596;2022-12-29T05:05:25;6.80;99.90
21662;DHT22;10992;48.170;8.596;2022-12-29T05:07:51;6.80;99.90
21662;DHT22;10992;48.170;8.596;2022-12-29T05:10:18;6.80;99.90
21662;DHT22;10992;48.170;8.596;2022-12-29T05:12:47;6.80;99.90
21662;DHT22;10992;48.170;8.596;2022-12-29T05:15:14;6.70;99.90
21662;DHT22;10992;48.170;8.596;2022-12-29T05:17:42;6.70;99.90
21662;DHT22;10992;48.170;8.596;2022-12-29T05:20:10;6.70;99.90
21662;DHT22;10992;48.170;8.596;2022-12-29T05:22:37;6.60;99.90
21662;DHT22;10992;48.170;8.596;2022-12-29T05:25:05;6.60;99.90
21662;DHT22;10992;48.170;8.596;2022-12-29T05:27:44;6.60;99.90
21662;DHT22;10992;48.170;8.596;2022-12-29T05:30:23;6.70;99.90
21662;DHT22;10992;48.170;8.596;2022-12-29T05:32:50;6.70;99.90
21662;DHT22;10992;48.170;8.596;2022-12-29T05:35:18;6.70;99.90
21662;DHT22;10992;48.170;8.596;2022-12-29T05:37:44;6.80;99.90
21662;DHT22;10992;48.170;8.596;2022-12-29T05:40:11;6.80;99.90
21662;DHT22;10992;48.170;8.596;2022-12-29T05:42:40;6.80;99.90
21662;DHT22;10992;48.170;8.596;2022-12-29T05:45:23;6.70;99.90
21662;DHT22;10992;48.170;8.596;2022-12-29T05:48:10;6.80;99.90
21662;DHT22;10992;48.170;8.596;2022-12-29T05:51:03;6.90;99.90
21662;DHT22;10992;48.170;8.596;2022-12-29T05:53:45;6.90;99.90
21662;DHT22;10992;48.170;8.596;2022-12-29T05:56:12;6.90;99.90
21662;DHT22;10992;48.170;8.596;2022-12-29T05:58:40;6.90;99.90
21662;DHT22;10992;48.170;8.596;2022-12-29T06:01:07;6.90;99.90
21662;DHT22;10992;48.170;8.596;2022-12-29T06:03:34;7.00;99.90
21662;DHT22;10992;48.170;8.596;2022-12-29T06:06:02;7.00;99.90
21662;DHT22;10992;48.170;8.596;2022-12-29T06:08:29;7.00;99.90
21662;DHT22;10992;48.170;8.596;2022-12-29T06:10:55;7.10;99.90
21662;DHT22;10992;48.170;8.596;2022-12-29T06:13:24;7.10;99.90
21662;DHT22;10992;48.170;8.596;2022-12-29T06:15:51;7.10;99.90
21662;DHT22;10992;48.170;8.596;2022-12-29T06:18:18;7.20;99.90
21662;DHT22;10992;48.170;8.596;2022-12-29T06:20:46;7.20;99.90
21662;DHT22;10992;48.170;8.596;2022-12-29T06:23:16;7.10;99.90
21662;DHT22;10992;48.170;8.596;2022-12-29T06:25:46;7.10;99.90
21662;DHT22;10992;48.170;8.596;2022-12-29T06:28:14;7.10;99.90
21662;DHT22;10992;48.170;8.596;2022-12-29T06:30:46;7.10;99.90
21662;DHT22;10992;48.170;8.596;2022-12-29T06:33:15;7.20;99.90
21662;DHT22;10992;48.170;8.596;2022-12-29T06:35:46;7.40;99.90
21662;DHT22;10992;48.170;8.596;2022-12-29T06:38:13;7.40;99.90
21662;DHT22;10992;48.170;8.596;2022-12-29T06:40:42;7.50;99.90
21662;DHT22;10992;48.170;8.596;2022-12-29T06:43:18;7.50;99.90
21662;DHT22;10992;48.170;8.596;2022-12-29T06:46:04;7.50;99.90
21662;DHT22;10992;48.170;8.596;2022-12-29T06:48:32;7.40;99.90
21662;DHT22;10992;48.170;8.596;2022-12-29T06:50:58;7.30;99.90
21662;DHT22;10992;48.170;8.596;2022-12-29T06:53:25;7.20;99.90
21662;DHT22;10992;48.170;8.596;2022-12-29T06:55:52;7.10;99.90
21662;DHT22;10992;48.170;8.596;2022-12-29T06:58:19;7.00;99.90
21662;DHT22;10992;48.170;8.596;2022-12-29T07:00:46;7.10;99.90
21662;DHT22;10992;48.170;8.596;2022-12-29T07:03:13;7.10;99.90
21662;DHT22;10992;48.170;8.596;2022-12-29T07:05:40;7.10;99.90
21662;DHT22;10992;48.170;8.596;2022-12-29T07:08:08;7.00;99.90
21662;DHT22;10992;48.170;8.596;2022-12-29T07:10:35;7.00;99.90
21662;DHT22;10992;48.170;8.596;2022-12-29T07:13:01;6.90;99.90
21662;DHT22;10992;48.170;8.596;2022-12-29T07:15:28;6.90;99.90
21662;DHT22;10992;48.170;8.596;2022-12-29T07:17:55;6.90;99.90
21662;DHT22;10992;48.170;8.596;2022-12-29T07:20:22;6.90;99.90
21662;DHT22;10992;48.170;8.596;2022-12-29T07:22:53;7.00;99.90
21662;DHT22;10992;48.170;8.596;2022-12-29T07:25:20;6.80;99.90
21662;DHT22;10992;48.170;8.596;2022-12-29T07:27:46;6.70;99.90
21662;DHT22;10992;48.170;8.596;2022-12-29T07:30:15;6.60;99.90
21662;DHT22;10992;48.170;8.596;2022-12-29T07:32:42;6.60;99.90
21662;DHT22;10992;48.170;8.596;2022-12-29T07:35:09;6.60;99.90
21662;DHT22;10992;48.170;8.596;2022-12-29T07:37:36;6.60;99.90
21662;DHT22;10992;48.170;8.596;2022-12-29T07:40:04;6.70;99.90
21662;DHT22;10992;48.170;8.596;2022-12-29T07:42:31;6.70;99.90
21662;DHT22;10992;48.170;8.596;2022-12-29T07:44:59;6.70;99.90
21662;DHT22;10992;48.170;8.596;2022-12-29T07:47:49;6.70;99.90
21662;DHT22;10992;48.170;8.596;2022-12-29T07:50:17;6.80;99.90
21662;DHT22;10992;48.170;8.596;2022-12-29T07:52:44;6.90;99.90
21662;DHT22;10992;48.170;8.596;2022-12-29T07:55:11;6.90;99.90
21662;DHT22;10992;48.170;8.596;2022-12-29T07:57:38;7.00;99.90
21662;DHT22;10992;48.170;8.596;2022-12-29T08:00:05;6.90;99.90
21662;DHT22;10992;48.170;8.596;2022-12-29T08:02:37;7.00;99.90
21662;DHT22;10992;48.170;8.596;2022-12-29T08:05:04;7.10;99.90
21662;DHT22;10992;48.170;8.596;2022-12-29T08:07:31;7.20;99.90
21662;DHT22;10992;48.170;8.596;2022-12-29T08:09:58;7.20;99.90
21662;DHT22;10992;48.170;8.596;2022-12-29T08:12:25;7.30;99.90
21662;DHT22;10992;48.170;8.596;2022-12-29T08:14:52;7.30;99.90
21662;DHT22;10992;48.170;8.596;2022-12-29T08:17:19;7.30;99.90
21662;DHT22;10992;48.170;8.596;2022-12-29T08:19:46;7.40;99.90
21662;DHT22;10992;48.170;8.596;2022-12-29T08:22:15;7.40;99.90
21662;DHT22;10992;48.170;8.596;2022-12-29T08:24:42;7.50;99.90
21662;DHT22;10992;48.170;8.596;2022-12-29T08:27:09;7.50;99.90
21662;DHT22;10992;48.170;8.596;2022-12-29T08:29:45;7.40;99.90
21662;DHT22;10992;48.170;8.596;2022-12-29T08:32:12;7.40;99.90
21662;DHT22;10992;48.170;8.596;2022-12-29T08:34:39;7.30;99.90
21662;DHT22;10992;48.170;8.596;2022-12-29T08:37:06;7.30;99.90
21662;DHT22;10992;48.170;8.596;2022-12-29T08:39:33;7.20;99.90
21662;DHT22;10992;48.170;8.596;2022-12-29T08:42:01;7.20;99.90
21662;DHT22;10992;48.170;8.596;2022-12-29T08:44:28;7.10;99.90
21662;DHT22;10992;48.170;8.596;2022-12-29T08:46:54;7.00;99.90
21662;DHT22;10992;48.170;8.596;2022-12-29T08:49:21;7.00;99.90
21662;DHT22;10992;48.170;8.596;2022-12-29T08:51:49;7.00;99.90
21662;DHT22;10992;48.170;8.596;2022-12-29T08:54:16;6.90;99.90
21662;DHT22;10992;48.170;8.596;2022-12-29T08:56:43;6.90;99.90
21662;DHT22;10992;48.170;8.596;2022-12-29T08:59:14;6.90;99.90
21662;DHT22;10992;48.170;8.596;2022-12-29T09:01:42;7.00;99.90
21662;DHT22;10992;48.170;8.596;2022-12-29T09:04:09;7.00;99.90
21662;DHT22;10992;48.170;8.596;2022-12-29T09:06:44;6.90;99.90
21662;DHT22;10992;48.170;8.596;2022-12-29T09:09:11;7.10;99.90
21662;DHT22;10992;48.170;8.596;2022-12-29T09:11:38;7.10;99.90
21662;DHT22;10992;48.170;8.596;2022-12-29T09:14:05;7.10;99.90
21662;DHT22;10992;48.170;8.596;2022-12-29T09:16:32;7.10;99.90
21662;DHT22;10992;48.170;8.596;2022-12-29T09:19:00;7.10;99.90
21662;DHT22;10992;48.170;8.596;2022-12-29T09:21:27;7.20;99.90
21662;DHT22;10992;48.170;8.596;2022-12-29T09:23:54;7.20;99.90
21662;DHT22;10992;48.170;8.596;2022-12-29T09:26:20;7.30;99.90
21662;DHT22;10992;48.170;8.596;2022-12-29T09:28:47;7.30;99.90
21662;DHT22;10992;48.170;8.596;2022-12-29T09:31:14;7.40;99.90
21662;DHT22;10992;48.170;8.596;2022-12-29T09:33:41;7.40;99.90
21662;DHT22;10992;48.170;8.596;2022-12-29T09:36:08;7.60;99.90
21662;DHT22;10992;48.170;8.596;2022-12-29T09:38:35;7.60;99.90
21662;DHT22;10992;48.170;8.596;2022-12-29T09:41:19;7.70;99.90
21662;DHT22;10992;48.170;8.596;2022-12-29T09:46:24;7.70;99.90
21662;DHT22;10992;48.170;8.596;2022-12-29T09:51:51;7.70;99.90
21662;DHT22;10992;48.170;8.596;2022-12-29T09:56:51;7.70;99.90
21662;DHT22;10992;48.170;8.596;2022-12-29T09:59:22;7.80;99.90
21662;DHT22;10992;48.170;8.596;2022-12-29T10:01:59;7.80;99.90
21662;DHT22;10992;48.170;8.596;2022-12-29T10:04:31;7.80;99.90
21662;DHT22;10992;48.170;8.596;2022-12-29T10:07:10;7.90;99.90
21662;DHT22;10992;48.170;8.596;2022-12-29T10:21:14;7.80;99.90
21662;DHT22;10992;48.170;8.596;2022-12-29T10:23:47;7.80;99.90
21662;DHT22;10992;48.170;8.596;2022-12-29T10:26:18;7.70;99.90
21662;DHT22;10992;48.170;8.596;2022-12-29T10:28:52;7.80;99.90
21662;DHT22;10992;48.170;8.596;2022-12-29T10:31:22;7.70;99.90
21662;DHT22;10992;48.170;8.596;2022-12-29T10:33:56;7.70;99.90
21662;DHT22;10992;48.170;8.596;2022-12-29T10:38:58;7.70;99.90
21662;DHT22;10992;48.170;8.596;2022-12-29T10:41:38;7.60;99.90
21662;DHT22;10992;48.170;8.596;2022-12-29T10:44:10;7.60;99.90
21662;DHT22;10992;48.170;8.596;2022-12-29T10:46:40;7.60;99.90
21662;DHT22;10992;48.170;8.596;2022-12-29T10:49:15;7.70;99.90
21662;DHT22;10992;48.170;8.596;2022-12-29T10:51:48;7.70;99.90
21662;DHT22;10992;48.170;8.596;2022-12-29T10:54:23;7.70;99.90
21662;DHT22;10992;48.170;8.596;2022-12-29T10:57:00;7.70;99.90
21662;DHT22;10992;48.170;8.596;2022-12-29T10:59:30;7.70;99.90
21662;DHT22;10992;48.170;8.596;2022-12-29T11:07:16;7.60;99.90
21662;DHT22;10992;48.170;8.596;2022-12-29T11:09:46;7.50;99.90
21662;DHT22;10992;48.170;8.596;2022-12-29T11:14:45;7.70;99.90
21662;DHT22;10992;48.170;8.596;2022-12-29T11:17:16;7.80;99.90
21662;DHT22;10992;48.170;8.596;2022-12-29T11:19:44;7.90;99.90
21662;DHT22;10992;48.170;8.596;2022-12-29T11:24:45;8.00;99.90
21662;DHT22;10992;48.170;8.596;2022-12-29T11:27:20;7.90;99.90
21662;DHT22;10992;48.170;8.596;2022-12-29T11:29:53;7.90;99.90
21662;DHT22;10992;48.170;8.596;2022-12-29T11:32:22;7.90;99.90
21662;DHT22;10992;48.170;8.596;2022-12-29T11:34:56;7.80;99.90
21662;DHT22;10992;48.170;8.596;2022-12-29T11:37:39;7.80;99.90
21662;DHT22;10992;48.170;8.596;2022-12-29T11:40:16;7.80;99.90
21662;DHT22;10992;48.170;8.596;2022-12-29T11:42:58;7.90;99.90
21662;DHT22;10992;48.170;8.596;2022-12-29T11:45:36;8.00;99.90
21662;DHT22;10992;48.170;8.596;2022-12-29T11:48:09;8.30;99.90
21662;DHT22;10992;48.170;8.596;2022-12-29T11:50:42;8.40;99.90
21662;DHT22;10992;48.170;8.596;2022-12-29T11:53:38;8.50;99.90
21662;DHT22;10992;48.170;8.596;2022-12-29T11:56:08;8.60;99.90
21662;DHT22;10992;48.170;8.596;2022-12-29T11:58:38;8.80;99.90
21662;DHT22;10992;48.170;8.596;2022-12-29T12:01:26;9.10;99.90
21662;DHT22;10992;48.170;8.596;2022-12-29T12:04:10;9.30;99.90
21662;DHT22;10992;48.170;8.596;2022-12-29T12:06:44;9.30;99.90
21662;DHT22;10992;48.170;8.596;2022-12-29T12:09:32;9.30;99.90
21662;DHT22;10992;48.170;8.596;2022-12-29T12:12:02;9.30;99.90
21662;DHT22;10992;48.170;8.596;2022-12-29T12:14:46;9.20;99.90
21662;DHT22;10992;48.170;8.596;2022-12-29T12:17:33;9.30;99.90
21662;DHT22;10992;48.170;8.596;2022-12-29T12:22:47;9.40;99.90
21662;DHT22;10992;48.170;8.596;2022-12-29T12:25:20;9.30;99.90
21662;DHT22;10992;48.170;8.596;2022-12-29T12:27:55;9.30;99.90
21662;DHT22;10992;48.170;8.596;2022-12-29T12:30:26;9.30;99.90
21662;DHT22;10992;48.170;8.596;2022-12-29T12:40:43;9.30;99.90
21662;DHT22;10992;48.170;8.596;2022-12-29T12:46:38;9.30;99.90
21662;DHT22;10992;48.170;8.596;2022-12-29T12:52:17;9.40;99.90
21662;DHT22;10992;48.170;8.596;2022-12-29T12:55:02;9.50;99.90
21662;DHT22;10992;48.170;8.596;2022-12-29T13:00:17;9.70;99.90
21662;DHT22;10992;48.170;8.596;2022-12-29T13:03:13;9.70;99.90
21662;DHT22;10992;48.170;8.596;2022-12-29T13:11:46;9.60;99.90
21662;DHT22;10992;48.170;8.596;2022-12-29T13:14:31;9.50;99.90
21662;DHT22;10992;48.170;8.596;2022-12-29T13:22:49;9.70;99.90
21662;DHT22;10992;48.170;8.596;2022-12-29T13:25:22;9.80;99.90
21662;DHT22;10992;48.170;8.596;2022-12-29T13:27:56;9.90;99.90
21662;DHT22;10992;48.170;8.596;2022-12-29T13:33:22;10.00;99.90
21662;DHT22;10992;48.170;8.596;2022-12-29T13:38:41;10.00;99.90
21662;DHT22;10992;48.170;8.596;2022-12-29T13:41:23;10.00;99.90
21662;DHT22;10992;48.170;8.596;2022-12-29T13:43:53;10.10;99.90
21662;DHT22;10992;48.170;8.596;2022-12-29T13:46:35;10.20;99.90
21662;DHT22;10992;48.170;8.596;2022-12-29T13:49:10;10.30;99.90
21662;DHT22;10992;48.170;8.596;2022-12-29T13:51:42;10.30;99.90
21662;DHT22;10992;48.170;8.596;2022-12-29T13:54:29;10.30;99.90
21662;DHT22;10992;48.170;8.596;2022-12-29T13:57:10;10.20;99.90
21662;DHT22;10992;48.170;8.596;2022-12-29T13:59:50;10.10;99.90
21662;DHT22;10992;48.170;8.596;2022-12-29T14:02:37;10.00;99.90
21662;DHT22;10992;48.170;8.596;2022-12-29T14:07:45;9.90;99.90
21662;DHT22;10992;48.170;8.596;2022-12-29T14:10:32;9.90;99.90
21662;DHT22;10992;48.170;8.596;2022-12-29T14:13:16;9.90;99.90
21662;DHT22;10992;48.170;8.596;2022-12-29T14:15:54;9.80;99.90
21662;DHT22;10992;48.170;8.596;2022-12-29T14:18:29;9.80;99.90
21662;DHT22;10992;48.170;8.596;2022-12-29T14:21:00;9.80;99.90
21662;DHT22;10992;48.170;8.596;2022-12-29T14:26:12;9.80;99.90
21662;DHT22;10992;48.170;8.596;2022-12-29T14:28:41;9.80;99.90
21662;DHT22;10992;48.170;8.596;2022-12-29T14:36:41;9.70;99.90
21662;DHT22;10992;48.170;8.596;2022-12-29T14:44:50;9.50;99.90
21662;DHT22;10992;48.170;8.596;2022-12-29T14:50:06;9.40;99.90
21662;DHT22;10992;48.170;8.596;2022-12-29T14:57:44;9.30;99.90
21662;DHT22;10992;48.170;8.596;2022-12-29T15:00:24;9.30;99.90
21662;DHT22;10992;48.170;8.596;2022-12-29T15:05:44;9.10;99.90
21662;DHT22;10992;48.170;8.596;2022-12-29T15:08:17;9.00;99.90
21662;DHT22;10992;48.170;8.596;2022-12-29T15:10:55;9.00;99.90
21662;DHT22;10992;48.170;8.596;2022-12-29T15:13:32;8.90;99.90
21662;DHT22;10992;48.170;8.596;2022-12-29T15:15:59;8.80;99.90
21662;DHT22;10992;48.170;8.596;2022-12-29T15:18:29;8.70;99.90
21662;DHT22;10992;48.170;8.596;2022-12-29T15:21:05;8.70;99.90
21662;DHT22;10992;48.170;8.596;2022-12-29T15:23:34;8.70;99.90
21662;DHT22;10992;48.170;8.596;2022-12-29T15:26:04;8.60;99.90
21662;DHT22;10992;48.170;8.596;2022-12-29T15:28:45;8.60;99.90
21662;DHT22;10992;48.170;8.596;2022-12-29T15:31:20;8.50;99.90
21662;DHT22;10992;48.170;8.596;2022-12-29T15:34:09;8.50;99.90
21662;DHT22;10992;48.170;8.596;2022-12-29T15:36:38;8.60;99.90
21662;DHT22;10992;48.170;8.596;2022-12-29T15:39:19;8.60;99.90
21662;DHT22;10992;48.170;8.596;2022-12-29T15:41:53;8.60;99.90
21662;DHT22;10992;48.170;8.596;2022-12-29T15:44:44;8.70;99.90
21662;DHT22;10992;48.170;8.596;2022-12-29T15:47:16;8.60;99.90
21662;DHT22;10992;48.170;8.596;2022-12-29T15:49:47;8.50;99.90
21662;DHT22;10992;48.170;8.596;2022-12-29T15:52:20;8.50;99.90
21662;DHT22;10992;48.170;8.596;2022-12-29T15:54:52;8.50;99.90
21662;DHT22;10992;48.170;8.596;2022-12-29T15:57:25;8.50;99.90
21662;DHT22;10992;48.170;8.596;2022-12-29T15:59:53;8.60;99.90
21662;DHT22;10992;48.170;8.596;2022-12-29T16:02:24;8.50;99.90
21662;DHT22;10992;48.170;8.596;2022-12-29T16:04:51;8.50;99.90
21662;DHT22;10992;48.170;8.596;2022-12-29T16:07:52;8.50;99.90
21662;DHT22;10992;48.170;8.596;2022-12-29T16:15:48;8.10;99.90
21662;DHT22;10992;48.170;8.596;2022-12-29T16:18:25;8.00;99.90
21662;DHT22;10992;48.170;8.596;2022-12-29T16:20:53;7.90;99.90
21662;DHT22;10992;48.170;8.596;2022-12-29T16:23:28;8.00;99.90
21662;DHT22;10992;48.170;8.596;2022-12-29T16:25:57;8.10;99.90
21662;DHT22;10992;48.170;8.596;2022-12-29T16:28:36;8.20;99.90
21662;DHT22;10992;48.170;8.596;2022-12-29T16:31:06;8.40;99.90
21662;DHT22;10992;48.170;8.596;2022-12-29T16:33:51;8.50;99.90
21662;DHT22;10992;48.170;8.596;2022-12-29T16:39:27;8.50;99.90
21662;DHT22;10992;48.170;8.596;2022-12-29T16:41:55;8.40;99.90
21662;DHT22;10992;48.170;8.596;2022-12-29T16:44:30;8.50;99.90
21662;DHT22;10992;48.170;8.596;2022-12-29T16:47:18;8.30;99.90
21662;DHT22;10992;48.170;8.596;2022-12-29T16:49:52;8.20;99.90
21662;DHT22;10992;48.170;8.596;2022-12-29T16:52:25;8.20;99.90
21662;DHT22;10992;48.170;8.596;2022-12-29T16:54:56;8.20;99.90
21662;DHT22;10992;48.170;8.596;2022-12-29T16:57:27;8.20;99.90
21662;DHT22;10992;48.170;8.596;2022-12-29T17:00:00;8.20;99.90
21662;DHT22;10992;48.170;8.596;2022-12-29T17:02:29;8.20;99.90
21662;DHT22;10992;48.170;8.596;2022-12-29T17:04:59;8.10;99.90
21662;DHT22;10992;48.170;8.596;2022-12-29T17:07:27;8.10;99.90
21662;DHT22;10992;48.170;8.596;2022-12-29T17:09:54;8.10;99.90
21662;DHT22;10992;48.170;8.596;2022-12-29T17:12:29;8.10;99.90
21662;DHT22;10992;48.170;8.596;2022-12-29T17:14:58;8.10;99.90
21662;DHT22;10992;48.170;8.596;2022-12-29T17:17:44;8.10;99.90
21662;DHT22;10992;48.170;8.596;2022-12-29T17:20:16;8.10;99.90
21662;DHT22;10992;48.170;8.596;2022-12-29T17:22:44;8.10;99.90
21662;DHT22;10992;48.170;8.596;2022-12-29T17:25:17;8.00;99.90
21662;DHT22;10992;48.170;8.596;2022-12-29T17:30:22;8.10;99.90
21662;DHT22;10992;48.170;8.596;2022-12-29T17:35:58;8.20;99.90
21662;DHT22;10992;48.170;8.596;2022-12-29T17:38:28;8.20;99.90
21662;DHT22;10992;48.170;8.596;2022-12-29T17:40:55;8.30;99.90
21662;DHT22;10992;48.170;8.596;2022-12-29T17:43:22;8.30;99.90
21662;DHT22;10992;48.170;8.596;2022-12-29T17:45:55;8.30;99.90
21662;DHT22;10992;48.170;8.596;2022-12-29T17:48:22;8.30;99.90
21662;DHT22;10992;48.170;8.596;2022-12-29T17:50:51;8.20;99.90
21662;DHT22;10992;48.170;8.596;2022-12-29T17:53:22;8.10;99.90
21662;DHT22;10992;48.170;8.596;2022-12-29T17:55:49;8.00;99.90
21662;DHT22;10992;48.170;8.596;2022-12-29T17:58:23;7.90;99.90
21662;DHT22;10992;48.170;8.596;2022-12-29T18:00:52;7.90;99.90
21662;DHT22;10992;48.170;8.596;2022-12-29T18:03:29;7.90;99.90
21662;DHT22;10992;48.170;8.596;2022-12-29T18:05:57;7.80;99.90
21662;DHT22;10992;48.170;8.596;2022-12-29T18:08:24;7.80;99.90
21662;DHT22;10992;48.170;8.596;2022-12-29T18:10:52;7.80;99.90
21662;DHT22;10992;48.170;8.596;2022-12-29T18:13:25;7.70;99.90
21662;DHT22;10992;48.170;8.596;2022-12-29T18:16:04;7.70;99.90
21662;DHT22;10992;48.170;8.596;2022-12-29T18:18:31;7.70;99.90
21662;DHT22;10992;48.170;8.596;2022-12-29T18:20:59;7.60;99.90
21662;DHT22;10992;48.170;8.596;2022-12-29T18:23:28;7.70;99.90
21662;DHT22;10992;48.170;8.596;2022-12-29T18:26:04;7.80;99.90
21662;DHT22;10992;48.170;8.596;2022-12-29T18:28:32;7.80;99.90
21662;DHT22;10992;48.170;8.596;2022-12-29T18:31:00;7.80;99.90
21662;DHT22;10992;48.170;8.596;2022-12-29T18:33:28;7.80;99.90
21662;DHT22;10992;48.170;8.596;2022-12-29T18:36:00;7.80;99.90